Time;durP1;ratioP1;P1;durP2;ratioP2;P2;SDS_P1;SDS_P2;PMS_P1;PMS_P2;Temp;Humidity;BMP_temperature;BMP_pressure;BME280_temperature;BME280_humidity;BME280_pressure;Samples;Min_cycle;Max_cycle;Signal;HPM_P1;HPM_P2
2023/10/04 00:02:29;;;;;;;1999.90;999.90;;;;;;;12.03;100.00;98957.75;18557456;32;20100;-59
2023/10/04 00:12:32;;;;;;;1999.90;999.90;;;;;;;11.86;100.00;98957.75;18571057;32;20052;-59
2023/10/04 00:22:36;;;;;;;1999.90;999.90;;;;;;;11.96;100.00;98957.94;18556357;32;20065;-58
2023/10/04 00:32:38;;;;;;;1999.90;999.90;;;;;;;11.84;100.00;98959.84;18570977;32;20350;-58
2023/10/04 00:42:41;;;;;;;1999.90;999.90;;;;;;;11.90;100.00;98952.66;18554852;32;20075;-58
2023/10/04 00:52:52;;;;;;;1999.90;999.90;;;;;;;11.77;100.00;98942.94;18568498;32;20091;-58
2023/10/04 01:02:54;;;;;;;1999.90;999.90;;;;;;;11.79;100.00;98949.75;18555002;32;20087;-58
2023/10/04 01:12:56;;;;;;;1999.90;999.90;;;;;;;11.84;100.00;98933.59;18567320;31;20056;-58
2023/10/04 01:23:06;;;;;;;1999.90;999.90;;;;;;;11.87;100.00;98924.97;18539758;32;20063;-58
2023/10/04 01:33:10;;;;;;;1999.90;999.90;;;;;;;11.69;100.00;98914.41;18566268;31;20071;-58
2023/10/04 01:43:16;;;;;;;1999.90;999.90;;;;;;;11.42;100.00;98920.44;18565723;32;20061;-58
2023/10/04 01:53:22;;;;;;;1999.90;999.90;;;;;;;11.43;100.00;98916.69;18565527;32;20075;-58
2023/10/04 02:03:24;;;;;;;1999.90;999.90;;;;;;;11.25;100.00;98914.19;18549983;32;20056;-59
2023/10/04 02:13:27;;;;;;;1999.90;999.90;;;;;;;11.19;100.00;98913.25;18563528;32;20215;-58
2023/10/04 02:23:30;;;;;;;1999.90;999.90;;;;;;;11.02;100.00;98908.63;18563324;32;20044;-58
2023/10/04 02:33:33;;;;;;;1999.90;999.90;;;;;;;10.95;100.00;98909.84;18562679;32;20048;-58
2023/10/04 02:43:37;;;;;;;1999.90;999.90;;;;;;;10.98;100.00;98917.50;18562123;32;20061;-58
2023/10/04 02:53:41;;;;;;;1999.90;999.90;;;;;;;10.76;100.00;98928.97;18561600;32;20131;-58
2023/10/04 03:03:44;;;;;;;1999.90;999.90;;;;;;;10.67;100.00;98925.00;18561084;32;20068;-58
2023/10/04 03:13:49;;;;;;;1999.90;999.90;;;;;;;10.72;100.00;98925.13;18494254;32;20173;-58
2023/10/04 03:23:54;;;;;;;1999.90;999.90;;;;;;;10.50;100.00;98917.63;18488838;32;20064;-58
2023/10/04 03:33:56;;;;;;;;;;;;;;;10.31;100.00;98916.13;18495522;32;20346;-58
2023/10/04 03:43:59;;;;;;;1999.90;999.90;;;;;;;10.23;100.00;98930.00;18495483;32;20368;-58
2023/10/04 03:54:06;;;;;;;1999.90;999.90;;;;;;;10.21;100.00;98929.41;18494878;32;20158;-58
2023/10/04 04:04:14;;;;;;;1999.90;999.90;;;;;;;10.22;100.00;98931.88;18494773;32;20080;-58
2023/10/04 04:14:18;;;;;;;1999.90;999.90;;;;;;;10.13;100.00;98931.41;18553554;31;20048;-58
2023/10/04 04:24:23;;;;;;;1999.90;999.90;;;;;;;10.21;100.00;98942.91;18558544;32;20072;-58
2023/10/04 04:34:26;;;;;;;1999.90;999.90;;;;;;;10.21;100.00;98945.62;18567639;32;20084;-58
2023/10/04 04:44:38;;;;;;;1999.90;999.90;;;;;;;10.02;100.00;98951.16;18569361;32;20057;-58
2023/10/04 04:54:41;;;;;;;1999.90;999.90;;;;;;;9.88;100.00;98960.53;18568908;32;20056;-58
2023/10/04 05:04:43;;;;;;;1999.90;999.90;;;;;;;9.87;100.00;98959.72;18568217;32;20470;-58
2023/10/04 05:14:46;;;;;;;1999.90;999.90;;;;;;;9.93;100.00;98966.06;18567234;32;20056;-58
2023/10/04 05:24:48;;;;;;;1999.90;999.90;;;;;;;9.88;100.00;98979.44;18566866;32;20112;-58
2023/10/04 05:34:51;;;;;;;1999.90;999.90;;;;;;;9.96;100.00;98984.50;18566439;32;20056;-58
2023/10/04 05:44:54;;;;;;;1999.90;999.90;;;;;;;10.10;100.00;98988.66;18564877;32;20109;-58
2023/10/04 05:54:57;;;;;;;1999.90;999.90;;;;;;;10.31;100.00;98994.53;18565280;32;20060;-58
2023/10/04 06:05:00;;;;;;;1999.90;999.90;;;;;;;10.23;100.00;98994.87;18564314;31;20104;-58
2023/10/04 06:15:04;;;;;;;1999.90;999.90;;;;;;;10.60;100.00;98991.94;18563971;32;20052;-58
2023/10/04 06:25:07;;;;;;;1999.90;999.90;;;;;;;10.64;100.00;98975.00;18563301;32;20444;-58
2023/10/04 06:35:09;;;;;;;1999.90;999.90;;;;;;;10.61;100.00;98982.78;18548973;32;20108;-58
2023/10/04 06:45:13;;;;;;;1999.90;999.90;;;;;;;10.68;100.00;98988.88;18562221;32;20112;-58
2023/10/04 06:55:18;;;;;;;1999.90;999.90;;;;;;;10.78;100.00;98990.97;18561140;32;20057;-58
2023/10/04 07:05:24;;;;;;;1999.90;999.90;;;;;;;10.88;100.00;99002.00;18560555;32;20067;-58
2023/10/04 07:15:28;;;;;;;1999.90;999.90;;;;;;;10.97;100.00;98999.75;18560652;32;20056;-59
2023/10/04 07:25:32;;;;;;;1999.90;999.90;;;;;;;11.17;100.00;99010.16;18560236;32;20056;-58
2023/10/04 07:35:35;;;;;;;;;;;;;;;11.61;100.00;99026.69;18560326;32;20472;-58
2023/10/04 07:45:38;;;;;;;1999.90;999.90;;;;;;;11.95;100.00;99032.19;18560322;32;19970;-58
2023/10/04 07:55:41;;;;;;;1999.90;999.90;;;;;;;12.24;100.00;99026.69;18559216;32;20462;-58
2023/10/04 08:05:43;;;;;;;1999.90;999.90;;;;;;;12.43;100.00;99024.53;18564495;32;20083;-58
2023/10/04 08:15:46;;;;;;;1999.90;999.90;;;;;;;12.52;100.00;99028.44;18557033;32;20105;-58
2023/10/04 08:25:53;;;;;;;1999.90;999.90;;;;;;;12.75;100.00;99034.75;18571266;32;20069;-58
2023/10/04 08:35:55;;;;;;;1999.90;999.90;;;;;;;12.94;100.00;99026.31;18570187;32;20074;-58
2023/10/04 08:45:58;;;;;;;1999.90;999.90;;;;;;;13.25;100.00;99007.66;18555050;31;20094;-58
2023/10/04 08:56:08;;;;;;;1999.90;999.90;;;;;;;13.63;100.00;99008.63;18554532;32;20501;-58
2023/10/04 09:06:14;;;;;;;1999.90;999.90;;;;;;;13.84;100.00;98986.00;18568071;32;20095;-58
2023/10/04 09:16:28;;;;;;;1999.90;999.90;;;;;;;14.06;100.00;98993.25;18553690;32;20056;-58
2023/10/04 09:26:31;;;;;;;1999.90;999.90;;;;;;;14.46;100.00;98983.72;18552668;32;20057;-58
2023/10/04 09:36:34;;;;;;;1999.90;999.90;;;;;;;14.56;100.00;98982.94;18566641;31;20061;-58
2023/10/04 09:46:54;;;;;;;1999.90;999.90;;;;;;;14.85;100.00;99002.44;18565796;32;20064;-58
2023/10/04 09:56:59;;;;;;;1999.90;999.90;;;;;;;15.19;100.00;98993.84;18565597;32;20065;-58
2023/10/04 10:07:18;;;;;;;1999.90;999.90;;;;;;;15.34;100.00;98978.66;18564353;32;20369;-58
2023/10/04 10:17:21;;;;;;;1999.90;999.90;;;;;;;15.49;100.00;98986.84;18536841;32;20086;-59
2023/10/04 10:27:27;;;;;;;1999.90;999.90;;;;;;;15.55;100.00;98982.22;18549205;32;20516;-58
2023/10/04 10:37:38;;;;;;;1999.90;999.90;;;;;;;15.82;100.00;98984.72;18536026;32;20072;-58
2023/10/04 10:47:41;;;;;;;1999.90;999.90;;;;;;;16.27;100.00;98974.06;18562545;32;20071;-58
2023/10/04 10:58:16;;;;;;;1999.90;999.90;;;;;;;16.25;100.00;98960.72;18561696;32;20075;-58
2023/10/04 11:08:28;;;;;;;1999.90;999.90;;;;;;;16.17;100.00;98944.91;18561034;32;20075;-58
2023/10/04 11:18:31;;;;;;;1999.90;999.90;;;;;;;16.43;100.00;98934.72;18560679;32;20429;-59
2023/10/04 11:28:36;;;;;;;1999.90;999.90;;;;;;;16.90;100.00;98948.25;18546573;32;20061;-58
2023/10/04 11:38:40;;;;;;;1999.90;999.90;;;;;;;17.11;100.00;98940.75;18562809;32;20464;-59
2023/10/04 11:48:42;;;;;;;1999.90;999.90;;;;;;;17.08;100.00;98919.47;18573010;32;20060;-59
2023/10/04 11:58:51;;;;;;;1999.90;999.90;;;;;;;17.79;100.00;98920.84;18572297;32;20100;-58
2023/10/04 12:08:58;;;;;;;1999.90;999.90;;;;;;;18.21;100.00;98896.69;18557164;32;20056;-58
2023/10/04 12:19:02;;;;;;;1999.90;999.90;;;;;;;18.22;100.00;98876.41;18557261;32;20097;-59
2023/10/04 12:29:07;;;;;;;1999.90;999.90;;;;;;;18.06;100.00;98869.47;18570248;32;20456;-58
2023/10/04 12:39:14;;;;;;;1999.90;999.90;;;;;;;18.39;100.00;98855.94;18556032;32;20063;-58
2023/10/04 12:49:18;;;;;;;1999.90;999.90;;;;;;;18.83;100.00;98854.84;18568899;32;20060;-58
2023/10/04 12:59:23;;;;;;;1999.90;999.90;;;;;;;18.50;93.21;98852.00;18568662;32;20052;-59
2023/10/04 13:09:28;;;;;;;1999.90;999.90;;;;;;;18.29;86.71;98846.75;18553392;32;20061;-58
2023/10/04 13:19:42;;;;;;;1999.90;999.90;;;;;;;18.07;95.75;98830.03;18553606;32;20098;-58
2023/10/04 13:29:46;;;;;;;1999.90;999.90;;;;;;;18.35;93.79;98827.50;18567067;32;20453;-58
2023/10/04 13:39:49;;;;;;;1999.90;999.90;;;;;;;18.43;94.33;98819.47;18566357;32;20056;-58
2023/10/04 13:49:52;;;;;;;1999.90;999.90;;;;;;;18.03;74.19;98807.09;18551453;32;20487;-58
2023/10/04 13:59:55;;;;;;;1999.90;999.90;;;;;;;18.62;100.00;98826.87;18550431;32;20139;-58
2023/10/04 14:09:59;;;;;;;1999.90;999.90;;;;;;;18.81;100.00;98818.69;18564268;32;20049;-58
2023/10/04 14:20:02;;;;;;;1999.90;999.90;;;;;;;18.19;81.33;98815.94;18564204;32;20381;-58
2023/10/04 14:30:11;;;;;;;1999.90;999.90;;;;;;;18.34;100.00;98812.22;18562884;32;20111;-58
2023/10/04 14:40:28;;;;;;;1999.90;999.90;;;;;;;18.13;100.00;98798.78;18562429;32;20052;-58
2023/10/04 14:50:41;;;;;;;1999.90;999.90;;;;;;;17.84;100.00;98813.31;18562124;32;20060;-58
2023/10/04 15:00:53;;;;;;;1999.90;999.90;;;;;;;18.02;100.00;98805.47;18561470;32;20076;-58
2023/10/04 15:10:57;;;;;;;1999.90;999.90;;;;;;;17.71;100.00;98808.50;18560641;32;20064;-58
2023/10/04 15:21:05;;;;;;;1999.90;999.90;;;;;;;17.41;100.00;98799.50;18560495;32;20078;-58
2023/10/04 15:31:09;;;;;;;1999.90;999.90;;;;;;;17.08;100.00;98802.75;18545770;32;20056;-58
2023/10/04 15:41:12;;;;;;;;;;;;;;;16.83;100.00;98795.53;18560787;32;20052;-58
2023/10/04 15:51:15;;;;;;;1999.90;999.90;;;;;;;16.67;100.00;98788.53;18560047;32;19947;-58
2023/10/04 16:01:20;;;;;;;1999.90;999.90;;;;;;;16.54;100.00;98774.41;18559262;32;20094;-58
2023/10/04 16:11:24;;;;;;;1999.90;999.90;;;;;;;16.24;100.00;98775.41;18558570;32;20466;-58
2023/10/04 16:21:30;;;;;;;1999.90;999.90;;;;;;;16.01;100.00;98741.41;18544500;32;20057;-58
2023/10/04 16:31:34;;;;;;;1999.90;999.90;;;;;;;15.87;100.00;98754.81;18569302;32;20065;-58
2023/10/04 16:41:37;;;;;;;1999.90;999.90;;;;;;;15.44;100.00;98774.22;18570027;32;20401;-58
2023/10/04 16:51:42;;;;;;;1999.90;999.90;;;;;;;15.36;100.00;98772.91;18555720;32;20060;-58
2023/10/04 17:01:45;;;;;;;1999.90;999.90;;;;;;;14.95;100.00;98785.69;18568711;32;20109;-58
2023/10/04 17:11:48;;;;;;;1999.90;999.90;;;;;;;14.62;100.00;98780.47;18567685;32;20473;-58
2023/10/04 17:21:51;;;;;;;1999.90;999.90;;;;;;;14.23;100.00;98770.81;18567857;32;20075;-58
2023/10/04 17:31:54;;;;;;;1999.90;999.90;;;;;;;13.99;100.00;98764.19;18566750;32;20086;-58
2023/10/04 17:42:00;;;;;;;1999.90;999.90;;;;;;;13.73;100.00;98758.63;18552200;32;20372;-58
2023/10/04 17:52:05;;;;;;;1999.90;999.90;;;;;;;13.58;100.00;98777.56;18565524;31;20449;-58
2023/10/04 18:02:09;;;;;;;1999.90;999.90;;;;;;;13.21;100.00;98787.38;18565240;32;20495;-58
2023/10/04 18:12:12;;;;;;;1999.90;999.90;;;;;;;12.91;100.00;98785.19;18550194;32;20089;-58
2023/10/04 18:22:15;;;;;;;1999.90;999.90;;;;;;;12.62;100.00;98791.72;18563728;32;20500;-58
2023/10/04 18:32:18;;;;;;;1999.90;999.90;;;;;;;12.43;100.00;98798.53;18549181;32;20156;-58
2023/10/04 18:42:21;;;;;;;1999.90;999.90;;;;;;;12.33;100.00;98794.66;18562517;31;20045;-58
2023/10/04 18:52:24;;;;;;;1999.90;999.90;;;;;;;11.97;100.00;98793.41;18547566;32;20068;-58
2023/10/04 19:02:27;;;;;;;1999.90;999.90;;;;;;;11.80;100.00;98790.69;18547617;32;20067;-58
2023/10/04 19:12:30;;;;;;;1999.90;999.90;;;;;;;11.58;100.00;98793.38;18546501;32;20091;-58
2023/10/04 19:22:33;;;;;;;1999.90;999.90;;;;;;;11.47;100.00;98801.34;18561050;32;20068;-58
2023/10/04 19:32:36;;;;;;;1999.90;999.90;;;;;;;11.25;100.00;98806.72;18533273;32;20118;-58
2023/10/04 19:42:40;;;;;;;1999.90;999.90;;;;;;;11.12;100.00;98797.00;18560177;32;20045;-58
2023/10/04 19:52:43;;;;;;;1999.90;999.90;;;;;;;10.88;100.00;98790.94;18545548;32;20120;-58
2023/10/04 20:02:51;;;;;;;1999.90;999.90;;;;;;;10.67;100.00;98789.75;18566393;32;20096;-58
2023/10/04 20:12:57;;;;;;;1999.90;999.90;;;;;;;10.66;100.00;98801.62;18571553;32;20061;-58
2023/10/04 20:23:00;;;;;;;1999.90;999.90;;;;;;;10.41;100.00;98797.37;18571240;32;20067;-58
2023/10/04 20:33:03;;;;;;;1999.90;999.90;;;;;;;10.30;100.00;98795.53;18570114;31;20064;-58
2023/10/04 20:43:06;;;;;;;1999.90;999.90;;;;;;;10.07;100.00;98805.34;18569914;32;20523;-58
2023/10/04 20:53:09;;;;;;;1999.90;999.90;;;;;;;10.01;100.00;98790.06;18569393;32;20398;-58
2023/10/04 21:03:12;;;;;;;1999.90;999.90;;;;;;;9.88;100.00;98798.44;18542153;32;20069;-58
2023/10/04 21:13:16;;;;;;;1999.90;999.90;;;;;;;9.77;100.00;98802.81;18567702;32;20099;-58
2023/10/04 21:23:19;;;;;;;1999.90;999.90;;;;;;;9.76;100.00;98793.06;18567638;32;20056;-58
2023/10/04 21:33:25;;;;;;;1999.90;999.90;;;;;;;9.64;100.00;98791.19;18539857;32;20102;-58
2023/10/04 21:43:29;;;;;;;1999.90;999.90;;;;;;;9.59;100.00;98795.66;18552251;32;20053;-58
2023/10/04 21:53:32;;;;;;;1999.90;999.90;;;;;;;9.54;100.00;98793.66;18551385;32;20487;-58
2023/10/04 22:03:35;;;;;;;1999.90;999.90;;;;;;;9.43;100.00;98789.91;18565078;32;20041;-58
2023/10/04 22:13:38;;;;;;;1999.90;999.90;;;;;;;9.30;100.00;98787.44;18498047;32;20060;-58
2023/10/04 22:23:43;;;;;;;1999.90;999.90;;;;;;;9.14;100.00;98787.09;18477546;32;20112;-58
2023/10/04 22:33:48;;;;;;;1999.90;999.90;;;;;;;9.05;100.00;98769.59;18498197;32;20113;-58
2023/10/04 22:43:51;;;;;;;1999.90;999.90;;;;;;;9.05;100.00;98756.09;18497775;32;20056;-58
2023/10/04 22:53:57;;;;;;;1999.90;999.90;;;;;;;8.94;100.00;98746.94;18496419;32;20092;-58
2023/10/04 23:04:01;;;;;;;1999.90;999.90;;;;;;;8.96;100.00;98730.50;18496775;32;20449;-60
2023/10/04 23:14:05;;;;;;;1999.90;999.90;;;;;;;8.73;100.00;98734.84;18553955;31;20108;-60
2023/10/04 23:24:14;;;;;;;1999.90;999.90;;;;;;;8.71;100.00;98726.13;18560690;32;20052;-58
2023/10/04 23:34:17;;;;;;;1999.90;999.90;;;;;;;8.65;100.00;98735.16;18560097;32;20117;-58
2023/10/04 23:44:23;;;;;;;1999.90;999.90;;;;;;;8.63;100.00;98745.34;18559860;32;20120;-58
2023/10/04 23:54:27;;;;;;;1999.90;999.90;;;;;;;8.54;100.00;98738.63;18559797;32;20064;-58
